sensor_id;sensor_type;location;lat;lon;timestamp;pressure;altitude;pressure_sealevel;temperature;humidity
21877;BME280;11103;43.788;23.710;2022-07-06T00:00:00;40563.56;;;22.24;100.00
21877;BME280;11103;43.788;23.710;2022-07-06T00:02:25;43616.00;;;22.22;100.00
21877;BME280;11103;43.788;23.710;2022-07-06T00:04:51;45968.72;;;22.10;100.00
21877;BME280;11103;43.788;23.710;2022-07-06T00:07:16;52060.75;;;22.26;100.00
21877;BME280;11103;43.788;23.710;2022-07-06T00:09:42;49424.09;;;22.21;100.00
21877;BME280;11103;43.788;23.710;2022-07-06T00:12:08;53327.16;;;22.24;100.00
21877;BME280;11103;43.788;23.710;2022-07-06T00:14:34;55964.38;;;22.18;100.00
21877;BME280;11103;43.788;23.710;2022-07-06T00:17:00;54228.31;;;22.23;100.00
21877;BME280;11103;43.788;23.710;2022-07-06T00:19:25;54378.06;;;22.22;100.00
21877;BME280;11103;43.788;23.710;2022-07-06T00:21:51;57360.47;;;22.21;100.00
21877;BME280;11103;43.788;23.710;2022-07-06T00:24:16;68409.19;;;22.23;100.00
21877;BME280;11103;43.788;23.710;2022-07-06T00:26:44;66639.34;;;21.92;100.00
21877;BME280;11103;43.788;23.710;2022-07-06T00:29:09;68543.97;;;22.02;100.00
21877;BME280;11103;43.788;23.710;2022-07-06T00:31:35;71605.34;;;22.07;100.00
21877;BME280;11103;43.788;23.710;2022-07-06T00:34:00;69696.41;;;21.91;100.00
21877;BME280;11103;43.788;23.710;2022-07-06T00:36:26;69363.13;;;22.06;100.00
21877;BME280;11103;43.788;23.710;2022-07-06T00:38:52;66938.47;;;22.11;100.00
21877;BME280;11103;43.788;23.710;2022-07-06T00:41:17;67230.28;;;21.74;100.00
21877;BME280;11103;43.788;23.710;2022-07-06T00:43:50;69420.13;;;21.81;100.00
21877;BME280;11103;43.788;23.710;2022-07-06T00:46:16;68190.66;;;21.92;100.00
21877;BME280;11103;43.788;23.710;2022-07-06T00:48:42;68316.38;;;21.86;100.00
21877;BME280;11103;43.788;23.710;2022-07-06T00:51:08;81829.72;;;22.00;100.00
21877;BME280;11103;43.788;23.710;2022-07-06T00:53:34;70355.34;;;22.04;100.00
21877;BME280;11103;43.788;23.710;2022-07-06T00:56:00;72198.78;;;22.04;100.00
21877;BME280;11103;43.788;23.710;2022-07-06T00:58:26;77684.25;;;21.91;100.00
21877;BME280;11103;43.788;23.710;2022-07-06T01:00:51;69019.53;;;21.79;100.00
21877;BME280;11103;43.788;23.710;2022-07-06T01:03:17;63658.97;;;21.98;100.00
21877;BME280;11103;43.788;23.710;2022-07-06T01:05:44;59296.13;;;22.16;100.00
21877;BME280;11103;43.788;23.710;2022-07-06T01:08:09;58701.28;;;22.11;100.00
21877;BME280;11103;43.788;23.710;2022-07-06T01:10:35;58556.06;;;22.17;100.00
21877;BME280;11103;43.788;23.710;2022-07-06T01:13:01;56581.56;;;22.14;100.00
21877;BME280;11103;43.788;23.710;2022-07-06T01:15:26;63109.16;;;22.16;100.00
21877;BME280;11103;43.788;23.710;2022-07-06T01:17:52;70256.66;;;21.89;100.00
21877;BME280;11103;43.788;23.710;2022-07-06T01:20:18;75080.25;;;22.16;100.00
21877;BME280;11103;43.788;23.710;2022-07-06T01:22:46;77469.38;;;22.02;100.00
21877;BME280;11103;43.788;23.710;2022-07-06T01:25:12;78114.88;;;22.06;100.00
21877;BME280;11103;43.788;23.710;2022-07-06T01:27:39;82375.44;;;21.81;100.00
21877;BME280;11103;43.788;23.710;2022-07-06T01:30:07;75325.84;;;21.88;100.00
21877;BME280;11103;43.788;23.710;2022-07-06T01:32:34;91221.59;;;21.90;100.00
21877;BME280;11103;43.788;23.710;2022-07-06T01:35:00;85886.44;;;22.03;100.00
21877;BME280;11103;43.788;23.710;2022-07-06T01:37:25;76501.56;;;22.00;100.00
21877;BME280;11103;43.788;23.710;2022-07-06T01:39:51;70973.84;;;21.66;100.00
21877;BME280;11103;43.788;23.710;2022-07-06T01:42:16;65345.56;;;21.69;100.00
21877;BME280;11103;43.788;23.710;2022-07-06T01:44:43;63485.97;;;21.78;100.00
21877;BME280;11103;43.788;23.710;2022-07-06T01:47:09;64680.22;;;21.58;100.00
21877;BME280;11103;43.788;23.710;2022-07-06T01:49:35;69344.78;;;21.71;100.00
21877;BME280;11103;43.788;23.710;2022-07-06T01:52:00;65505.53;;;21.58;100.00
21877;BME280;11103;43.788;23.710;2022-07-06T01:54:26;62459.88;;;21.66;100.00
21877;BME280;11103;43.788;23.710;2022-07-06T01:56:51;59194.22;;;21.57;100.00
21877;BME280;11103;43.788;23.710;2022-07-06T01:59:17;53310.91;;;21.44;100.00
21877;BME280;11103;43.788;23.710;2022-07-06T02:01:42;53012.81;;;21.57;100.00
21877;BME280;11103;43.788;23.710;2022-07-06T02:04:08;52634.84;;;21.45;100.00
21877;BME280;11103;43.788;23.710;2022-07-06T02:06:33;53159.66;;;21.61;100.00
21877;BME280;11103;43.788;23.710;2022-07-06T02:08:59;51764.06;;;21.40;100.00
21877;BME280;11103;43.788;23.710;2022-07-06T02:11:24;55389.81;;;21.21;100.00
21877;BME280;11103;43.788;23.710;2022-07-06T02:13:49;58668.03;;;21.36;100.00
21877;BME280;11103;43.788;23.710;2022-07-06T02:16:15;62960.22;;;21.36;100.00
21877;BME280;11103;43.788;23.710;2022-07-06T02:18:40;64721.38;;;21.29;100.00
21877;BME280;11103;43.788;23.710;2022-07-06T02:21:06;66508.91;;;21.44;100.00
21877;BME280;11103;43.788;23.710;2022-07-06T02:23:32;66416.91;;;21.18;100.00
21877;BME280;11103;43.788;23.710;2022-07-06T02:25:57;67885.66;;;21.26;100.00
21877;BME280;11103;43.788;23.710;2022-07-06T02:28:23;69700.09;;;21.31;100.00
21877;BME280;11103;43.788;23.710;2022-07-06T02:30:48;67454.69;;;20.88;100.00
21877;BME280;11103;43.788;23.710;2022-07-06T02:33:13;67222.72;;;21.26;100.00
21877;BME280;11103;43.788;23.710;2022-07-06T02:35:39;66633.47;;;21.02;100.00
21877;BME280;11103;43.788;23.710;2022-07-06T02:38:10;65421.34;;;20.97;100.00
21877;BME280;11103;43.788;23.710;2022-07-06T02:40:36;66693.66;;;21.23;100.00
21877;BME280;11103;43.788;23.710;2022-07-06T02:43:02;65942.38;;;21.14;100.00
21877;BME280;11103;43.788;23.710;2022-07-06T02:45:28;66406.41;;;21.23;100.00
21877;BME280;11103;43.788;23.710;2022-07-06T02:47:53;69388.22;;;21.02;100.00
21877;BME280;11103;43.788;23.710;2022-07-06T02:50:21;67164.94;;;21.06;100.00
21877;BME280;11103;43.788;23.710;2022-07-06T02:52:46;65532.41;;;21.07;100.00
21877;BME280;11103;43.788;23.710;2022-07-06T02:55:12;63181.25;;;20.81;100.00
21877;BME280;11103;43.788;23.710;2022-07-06T02:57:37;67119.41;;;21.14;100.00
21877;BME280;11103;43.788;23.710;2022-07-06T03:00:28;69056.09;;;21.28;100.00
21877;BME280;11103;43.788;23.710;2022-07-06T03:02:53;71307.31;;;21.17;100.00
21877;BME280;11103;43.788;23.710;2022-07-06T03:05:18;73275.16;;;21.12;100.00
21877;BME280;11103;43.788;23.710;2022-07-06T03:07:44;73226.81;;;21.11;100.00
21877;BME280;11103;43.788;23.710;2022-07-06T03:10:09;71462.06;;;21.28;100.00
21877;BME280;11103;43.788;23.710;2022-07-06T03:12:35;72165.34;;;21.24;100.00
21877;BME280;11103;43.788;23.710;2022-07-06T03:15:00;73663.56;;;21.31;100.00
21877;BME280;11103;43.788;23.710;2022-07-06T03:17:26;73451.13;;;21.42;100.00
21877;BME280;11103;43.788;23.710;2022-07-06T03:19:52;73633.28;;;21.20;100.00
21877;BME280;11103;43.788;23.710;2022-07-06T03:22:17;69188.06;;;21.22;100.00
21877;BME280;11103;43.788;23.710;2022-07-06T03:24:43;68019.00;;;21.30;100.00
21877;BME280;11103;43.788;23.710;2022-07-06T03:27:08;66141.94;;;21.15;100.00
21877;BME280;11103;43.788;23.710;2022-07-06T03:29:34;68441.47;;;21.48;100.00
21877;BME280;11103;43.788;23.710;2022-07-06T03:31:59;71246.13;;;21.55;100.00
21877;BME280;11103;43.788;23.710;2022-07-06T03:34:25;72017.19;;;21.59;100.00
21877;BME280;11103;43.788;23.710;2022-07-06T03:36:50;75462.59;;;21.46;100.00
21877;BME280;11103;43.788;23.710;2022-07-06T03:39:15;75343.09;;;21.71;100.00
21877;BME280;11103;43.788;23.710;2022-07-06T03:41:41;72674.47;;;21.65;100.00
21877;BME280;11103;43.788;23.710;2022-07-06T03:44:06;69475.34;;;21.73;100.00
21877;BME280;11103;43.788;23.710;2022-07-06T03:46:32;71673.34;;;21.73;100.00
21877;BME280;11103;43.788;23.710;2022-07-06T03:48:57;79117.63;;;21.71;100.00
21877;BME280;11103;43.788;23.710;2022-07-06T03:51:23;80641.09;;;21.49;100.00
21877;BME280;11103;43.788;23.710;2022-07-06T03:53:49;73041.00;;;21.78;100.00
21877;BME280;11103;43.788;23.710;2022-07-06T03:56:14;75141.78;;;21.84;100.00
21877;BME280;11103;43.788;23.710;2022-07-06T03:59:00;76725.00;;;21.86;100.00
21877;BME280;11103;43.788;23.710;2022-07-06T04:01:26;78441.47;;;21.67;100.00
21877;BME280;11103;43.788;23.710;2022-07-06T04:03:52;76153.50;;;21.92;100.00
21877;BME280;11103;43.788;23.710;2022-07-06T04:06:18;73684.94;;;21.86;100.00
21877;BME280;11103;43.788;23.710;2022-07-06T04:08:43;78361.66;;;21.90;100.00
21877;BME280;11103;43.788;23.710;2022-07-06T04:11:09;86383.66;;;22.12;100.00
21877;BME280;11103;43.788;23.710;2022-07-06T04:13:35;85291.03;;;22.13;100.00
21877;BME280;11103;43.788;23.710;2022-07-06T04:16:00;88272.47;;;22.24;100.00
21877;BME280;11103;43.788;23.710;2022-07-06T04:18:26;93201.69;;;22.31;100.00
21877;BME280;11103;43.788;23.710;2022-07-06T04:20:52;100964.16;;;22.28;100.00
21877;BME280;11103;43.788;23.710;2022-07-06T04:23:17;107096.72;;;22.28;100.00
21877;BME280;11103;43.788;23.710;2022-07-06T04:25:43;114239.72;;;22.53;100.00
21877;BME280;11103;43.788;23.710;2022-07-06T04:28:08;120120.47;;;22.55;100.00
21877;BME280;11103;43.788;23.710;2022-07-06T04:30:34;123287.44;;;22.52;100.00
21877;BME280;11103;43.788;23.710;2022-07-06T04:32:59;121274.41;;;22.59;100.00
21877;BME280;11103;43.788;23.710;2022-07-06T04:35:25;124622.34;;;22.76;100.00
21877;BME280;11103;43.788;23.710;2022-07-06T04:37:50;129963.91;;;22.76;100.00
21877;BME280;11103;43.788;23.710;2022-07-06T04:40:16;129105.81;;;22.64;100.00
21877;BME280;11103;43.788;23.710;2022-07-06T04:42:41;133030.38;;;22.69;100.00
21877;BME280;11103;43.788;23.710;2022-07-06T04:45:08;138040.31;;;22.94;100.00
21877;BME280;11103;43.788;23.710;2022-07-06T04:47:33;147215.00;;;22.73;100.00
21877;BME280;11103;43.788;23.710;2022-07-06T04:50:00;145353.19;;;22.88;100.00
21877;BME280;11103;43.788;23.710;2022-07-06T04:52:26;147543.78;;;22.93;100.00
21877;BME280;11103;43.788;23.710;2022-07-06T04:54:53;147328.34;;;22.99;100.00
21877;BME280;11103;43.788;23.710;2022-07-06T04:57:19;152163.13;;;22.80;100.00
21877;BME280;11103;43.788;23.710;2022-07-06T04:59:44;152227.75;;;23.05;100.00
21877;BME280;11103;43.788;23.710;2022-07-06T05:02:09;152194.13;;;22.92;100.00
21877;BME280;11103;43.788;23.710;2022-07-06T05:04:35;152199.28;;;22.94;100.00
21877;BME280;11103;43.788;23.710;2022-07-06T05:07:00;152247.19;;;23.13;100.00
21877;BME280;11103;43.788;23.710;2022-07-06T05:09:26;152229.03;;;23.05;100.00
21877;BME280;11103;43.788;23.710;2022-07-06T05:11:51;152235.50;;;23.08;100.00
21877;BME280;11103;43.788;23.710;2022-07-06T05:14:17;152185.06;;;22.88;100.00
21877;BME280;11103;43.788;23.710;2022-07-06T05:16:42;152227.75;;;23.05;100.00
21877;BME280;11103;43.788;23.710;2022-07-06T05:19:08;152230.34;;;23.06;100.00
21877;BME280;11103;43.788;23.710;2022-07-06T05:21:33;152205.81;;;22.96;100.00
21877;BME280;11103;43.788;23.710;2022-07-06T05:23:59;152232.94;;;23.07;100.00
21877;BME280;11103;43.788;23.710;2022-07-06T05:26:24;152226.50;;;23.04;100.00
21877;BME280;11103;43.788;23.710;2022-07-06T05:28:49;152239.41;;;23.09;100.00
21877;BME280;11103;43.788;23.710;2022-07-06T05:31:15;152221.28;;;23.02;100.00
21877;BME280;11103;43.788;23.710;2022-07-06T05:33:40;152248.44;;;23.13;100.00
21877;BME280;11103;43.788;23.710;2022-07-06T05:36:06;152256.19;;;23.16;100.00
21877;BME280;11103;43.788;23.710;2022-07-06T05:38:32;152366.22;;;23.59;100.00
21877;BME280;11103;43.788;23.710;2022-07-06T05:40:58;152427.00;;;23.83;100.00
21877;BME280;11103;43.788;23.710;2022-07-06T05:43:24;152427.00;;;23.83;100.00
21877;BME280;11103;43.788;23.710;2022-07-06T05:45:49;152512.47;;;24.16;100.00
21877;BME280;11103;43.788;23.710;2022-07-06T05:48:15;152520.19;;;24.19;100.00
21877;BME280;11103;43.788;23.710;2022-07-06T05:50:59;152621.16;;;24.58;100.00
21877;BME280;11103;43.788;23.710;2022-07-06T05:53:24;152693.72;;;24.87;100.00
21877;BME280;11103;43.788;23.710;2022-07-06T05:55:50;152889.34;;;25.63;100.00
21877;BME280;11103;43.788;23.710;2022-07-06T05:58:15;152946.31;;;25.85;100.00
21877;BME280;11103;43.788;23.710;2022-07-06T06:00:41;153043.53;;;26.23;100.00
21877;BME280;11103;43.788;23.710;2022-07-06T06:03:07;153022.81;;;26.15;100.00
21877;BME280;11103;43.788;23.710;2022-07-06T06:05:32;152980.03;;;25.98;100.00
21877;BME280;11103;43.788;23.710;2022-07-06T06:07:57;152965.78;;;25.92;100.00
21877;BME280;11103;43.788;23.710;2022-07-06T06:10:23;152952.78;;;25.87;100.00
21877;BME280;11103;43.788;23.710;2022-07-06T06:12:50;152973.50;;;25.95;100.00
21877;BME280;11103;43.788;23.710;2022-07-06T06:15:16;153025.41;;;26.16;100.00
21877;BME280;11103;43.788;23.710;2022-07-06T06:17:43;152872.47;;;25.56;100.00
21877;BME280;11103;43.788;23.710;2022-07-06T06:20:10;152902.28;;;25.68;100.00
21877;BME280;11103;43.788;23.710;2022-07-06T06:22:53;152889.34;;;25.63;100.00
21877;BME280;11103;43.788;23.710;2022-07-06T06:25:33;152828.38;;;25.39;100.00
21877;BME280;11103;43.788;23.710;2022-07-06T06:27:59;152837.47;;;25.42;100.00
21877;BME280;11103;43.788;23.710;2022-07-06T06:30:24;152871.19;;;25.56;100.00
21877;BME280;11103;43.788;23.710;2022-07-06T06:32:50;152884.13;;;25.61;100.00
21877;BME280;11103;43.788;23.710;2022-07-06T06:35:15;152836.16;;;25.42;100.00
21877;BME280;11103;43.788;23.710;2022-07-06T06:37:42;152820.59;;;25.36;100.00
21877;BME280;11103;43.788;23.710;2022-07-06T06:40:08;152871.19;;;25.56;100.00
21877;BME280;11103;43.788;23.710;2022-07-06T06:42:38;152869.88;;;25.55;100.00
21877;BME280;11103;43.788;23.710;2022-07-06T06:45:05;152877.66;;;25.58;100.00
21877;BME280;11103;43.788;23.710;2022-07-06T06:47:30;152862.09;;;25.52;100.00
21877;BME280;11103;43.788;23.710;2022-07-06T06:49:56;152863.41;;;25.53;100.00
21877;BME280;11103;43.788;23.710;2022-07-06T06:52:21;152856.94;;;25.50;100.00
21877;BME280;11103;43.788;23.710;2022-07-06T06:54:47;152846.53;;;25.46;100.00
21877;BME280;11103;43.788;23.710;2022-07-06T06:57:12;152890.59;;;25.63;100.00
21877;BME280;11103;43.788;23.710;2022-07-06T06:59:38;152904.84;;;25.69;100.00
21877;BME280;11103;43.788;23.710;2022-07-06T07:02:03;152897.06;;;25.66;100.00
21877;BME280;11103;43.788;23.710;2022-07-06T07:04:28;152961.88;;;25.91;100.00
21877;BME280;11103;43.788;23.710;2022-07-06T07:06:56;152924.31;;;25.76;100.00
21877;BME280;11103;43.788;23.710;2022-07-06T07:09:21;152880.25;;;25.59;100.00
21877;BME280;11103;43.788;23.710;2022-07-06T07:11:47;152901.00;;;25.67;100.00
21877;BME280;11103;43.788;23.710;2022-07-06T07:14:13;152859.53;;;25.51;100.00
21877;BME280;11103;43.788;23.710;2022-07-06T07:16:38;152946.31;;;25.85;100.00
21877;BME280;11103;43.788;23.710;2022-07-06T07:19:04;152995.56;;;26.04;100.00
21877;BME280;11103;43.788;23.710;2022-07-06T07:21:29;153073.38;;;26.34;100.00
21877;BME280;11103;43.788;23.710;2022-07-06T07:23:55;153116.16;;;26.51;100.00
21877;BME280;11103;43.788;23.710;2022-07-06T07:26:20;153164.13;;;26.70;100.00
21877;BME280;11103;43.788;23.710;2022-07-06T07:28:46;153123.94;;;26.54;98.37
21877;BME280;11103;43.788;23.710;2022-07-06T07:31:12;153047.47;;;26.24;98.97
21877;BME280;11103;43.788;23.710;2022-07-06T07:33:37;153031.91;;;26.18;99.61
21877;BME280;11103;43.788;23.710;2022-07-06T07:36:03;153116.16;;;26.51;100.00
21877;BME280;11103;43.788;23.710;2022-07-06T07:38:29;153188.81;;;26.79;100.00
21877;BME280;11103;43.788;23.710;2022-07-06T07:40:54;153286.06;;;27.17;100.00
21877;BME280;11103;43.788;23.710;2022-07-06T07:43:20;153352.25;;;27.43;93.66
21877;BME280;11103;43.788;23.710;2022-07-06T07:45:46;153341.84;;;27.39;90.88
21877;BME280;11103;43.788;23.710;2022-07-06T07:48:12;153305.50;;;27.25;92.00
21877;BME280;11103;43.788;23.710;2022-07-06T07:50:38;153306.81;;;27.25;94.08
21877;BME280;11103;43.788;23.710;2022-07-06T07:53:03;153345.78;;;27.40;92.01
21877;BME280;11103;43.788;23.710;2022-07-06T07:55:29;153341.84;;;27.39;91.97
21877;BME280;11103;43.788;23.710;2022-07-06T07:57:54;153406.78;;;27.64;90.44
21877;BME280;11103;43.788;23.710;2022-07-06T08:00:20;153456.03;;;27.83;89.93
21877;BME280;11103;43.788;23.710;2022-07-06T08:02:47;153414.50;;;27.67;87.22
21877;BME280;11103;43.788;23.710;2022-07-06T08:05:12;153413.25;;;27.66;87.76
21877;BME280;11103;43.788;23.710;2022-07-06T08:07:41;153450.84;;;27.81;87.83
21877;BME280;11103;43.788;23.710;2022-07-06T08:10:06;153506.69;;;28.03;85.14
21877;BME280;11103;43.788;23.710;2022-07-06T08:12:34;153601.47;;;28.40;81.84
21877;BME280;11103;43.788;23.710;2022-07-06T08:14:59;153559.94;;;28.23;81.59
21877;BME280;11103;43.788;23.710;2022-07-06T08:17:25;153536.56;;;28.14;81.07
21877;BME280;11103;43.788;23.710;2022-07-06T08:19:51;153614.44;;;28.45;81.94
21877;BME280;11103;43.788;23.710;2022-07-06T08:22:16;153632.59;;;28.52;81.50
21877;BME280;11103;43.788;23.710;2022-07-06T08:24:42;153505.41;;;28.02;80.31
21877;BME280;11103;43.788;23.710;2022-07-06T08:27:10;153593.69;;;28.37;81.85
21877;BME280;11103;43.788;23.710;2022-07-06T08:29:36;153691.09;;;28.74;80.73
21877;BME280;11103;43.788;23.710;2022-07-06T08:32:01;153684.59;;;28.72;80.69
21877;BME280;11103;43.788;23.710;2022-07-06T08:34:27;153719.66;;;28.85;83.99
21877;BME280;11103;43.788;23.710;2022-07-06T08:36:52;153694.97;;;28.76;77.74
21877;BME280;11103;43.788;23.710;2022-07-06T08:39:19;153635.22;;;28.53;78.80
21877;BME280;11103;43.788;23.710;2022-07-06T08:41:47;153657.28;;;28.61;78.14
21877;BME280;11103;43.788;23.710;2022-07-06T08:44:17;153614.44;;;28.45;76.90
21877;BME280;11103;43.788;23.710;2022-07-06T08:46:43;153544.34;;;28.17;77.03
21877;BME280;11103;43.788;23.710;2022-07-06T08:49:13;153576.78;;;28.30;78.68
21877;BME280;11103;43.788;23.710;2022-07-06T08:51:40;153557.31;;;28.22;78.72
21877;BME280;11103;43.788;23.710;2022-07-06T08:54:07;153544.34;;;28.17;76.81
21877;BME280;11103;43.788;23.710;2022-07-06T08:56:33;153522.28;;;28.09;76.56
21877;BME280;11103;43.788;23.710;2022-07-06T08:58:59;153505.41;;;28.02;77.06
21877;BME280;11103;43.788;23.710;2022-07-06T09:01:25;153466.44;;;27.87;77.99
21877;BME280;11103;43.788;23.710;2022-07-06T09:03:51;153483.31;;;27.94;79.39
21877;BME280;11103;43.788;23.710;2022-07-06T09:06:22;153478.09;;;27.92;78.48
21877;BME280;11103;43.788;23.710;2022-07-06T09:08:50;153458.66;;;27.84;78.06
21877;BME280;11103;43.788;23.710;2022-07-06T09:11:17;153402.84;;;27.62;80.44
21877;BME280;11103;43.788;23.710;2022-07-06T09:13:43;153476.78;;;27.91;77.81
21877;BME280;11103;43.788;23.710;2022-07-06T09:16:13;153467.75;;;27.88;77.43
21877;BME280;11103;43.788;23.710;2022-07-06T09:18:40;153443.06;;;27.78;78.00
21877;BME280;11103;43.788;23.710;2022-07-06T09:21:08;153458.66;;;27.84;78.21
21877;BME280;11103;43.788;23.710;2022-07-06T09:23:34;153510.63;;;28.04;76.96
21877;BME280;11103;43.788;23.710;2022-07-06T09:26:05;153556.00;;;28.22;76.58
21877;BME280;11103;43.788;23.710;2022-07-06T09:28:44;153588.50;;;28.34;72.65
21877;BME280;11103;43.788;23.710;2022-07-06T09:31:10;153565.13;;;28.25;73.45
21877;BME280;11103;43.788;23.710;2022-07-06T09:33:36;153588.50;;;28.34;74.65
21877;BME280;11103;43.788;23.710;2022-07-06T09:36:02;153549.53;;;28.19;71.28
21877;BME280;11103;43.788;23.710;2022-07-06T09:38:28;153570.28;;;28.27;74.26
21877;BME280;11103;43.788;23.710;2022-07-06T09:40:54;153594.97;;;28.37;75.46
21877;BME280;11103;43.788;23.710;2022-07-06T09:43:21;153604.03;;;28.41;71.56
21877;BME280;11103;43.788;23.710;2022-07-06T09:45:56;153583.28;;;28.32;71.03
21877;BME280;11103;43.788;23.710;2022-07-06T09:48:27;153570.28;;;28.27;70.74
21877;BME280;11103;43.788;23.710;2022-07-06T09:51:00;153631.28;;;28.51;70.36
21877;BME280;11103;43.788;23.710;2022-07-06T09:53:28;153669.00;;;28.66;70.74
21877;BME280;11103;43.788;23.710;2022-07-06T09:55:55;153553.44;;;28.21;70.60
21877;BME280;11103;43.788;23.710;2022-07-06T09:58:21;153622.25;;;28.48;72.48
21877;BME280;11103;43.788;23.710;2022-07-06T10:00:48;153611.81;;;28.44;71.08
21877;BME280;11103;43.788;23.710;2022-07-06T10:03:15;153635.22;;;28.53;72.42
21877;BME280;11103;43.788;23.710;2022-07-06T10:05:45;153641.69;;;28.55;70.50
21877;BME280;11103;43.788;23.710;2022-07-06T10:08:13;153701.44;;;28.78;75.36
21877;BME280;11103;43.788;23.710;2022-07-06T10:10:40;153744.31;;;28.95;72.33
21877;BME280;11103;43.788;23.710;2022-07-06T10:13:07;153719.66;;;28.85;67.65
21877;BME280;11103;43.788;23.710;2022-07-06T10:15:34;153710.56;;;28.82;66.84
21877;BME280;11103;43.788;23.710;2022-07-06T10:18:02;153684.59;;;28.72;66.11
21877;BME280;11103;43.788;23.710;2022-07-06T10:20:29;153714.47;;;28.83;67.32
21877;BME280;11103;43.788;23.710;2022-07-06T10:22:59;153714.47;;;28.83;65.97
21877;BME280;11103;43.788;23.710;2022-07-06T10:25:27;153700.19;;;28.78;66.63
21877;BME280;11103;43.788;23.710;2022-07-06T10:27:53;153765.09;;;29.03;65.74
21877;BME280;11103;43.788;23.710;2022-07-06T10:30:20;153769.00;;;29.05;68.37
21877;BME280;11103;43.788;23.710;2022-07-06T10:32:48;153769.00;;;29.05;66.89
21877;BME280;11103;43.788;23.710;2022-07-06T10:35:15;153801.47;;;29.17;67.58
21877;BME280;11103;43.788;23.710;2022-07-06T10:37:45;153810.56;;;29.21;62.96
21877;BME280;11103;43.788;23.710;2022-07-06T10:40:13;153835.25;;;29.30;65.07
21877;BME280;11103;43.788;23.710;2022-07-06T10:43:02;153889.81;;;29.51;63.74
21877;BME280;11103;43.788;23.710;2022-07-06T10:48:22;153897.63;;;29.55;59.40
21877;BME280;11103;43.788;23.710;2022-07-06T10:50:53;153728.75;;;28.89;60.35
21877;BME280;11103;43.788;23.710;2022-07-06T10:53:26;153758.59;;;29.01;61.45
21877;BME280;11103;43.788;23.710;2022-07-06T10:55:53;153739.13;;;28.93;64.03
21877;BME280;11103;43.788;23.710;2022-07-06T11:01:05;153778.06;;;29.08;59.86
21877;BME280;11103;43.788;23.710;2022-07-06T11:03:44;153835.25;;;29.30;58.96
21877;BME280;11103;43.788;23.710;2022-07-06T11:06:20;153906.72;;;29.58;68.97
21877;BME280;11103;43.788;23.710;2022-07-06T11:16:31;153910.66;;;29.60;55.43
21877;BME280;11103;43.788;23.710;2022-07-06T11:19:05;153865.16;;;29.42;57.09
21877;BME280;11103;43.788;23.710;2022-07-06T11:22:05;153879.44;;;29.47;58.89
21877;BME280;11103;43.788;23.710;2022-07-06T11:24:31;153853.47;;;29.37;59.22
21877;BME280;11103;43.788;23.710;2022-07-06T11:26:58;153869.03;;;29.43;58.59
21877;BME280;11103;43.788;23.710;2022-07-06T11:29:25;153910.66;;;29.60;59.14
21877;BME280;11103;43.788;23.710;2022-07-06T11:31:55;153940.50;;;29.71;58.37
21877;BME280;11103;43.788;23.710;2022-07-06T11:34:26;153917.13;;;29.62;57.86
21877;BME280;11103;43.788;23.710;2022-07-06T11:36:56;153905.41;;;29.58;56.07
21877;BME280;11103;43.788;23.710;2022-07-06T11:39:22;153807.94;;;29.20;56.16
21877;BME280;11103;43.788;23.710;2022-07-06T11:41:48;153801.47;;;29.17;57.08
21877;BME280;11103;43.788;23.710;2022-07-06T11:44:13;153798.84;;;29.16;56.81
21877;BME280;11103;43.788;23.710;2022-07-06T11:46:39;153709.25;;;28.81;56.61
21877;BME280;11103;43.788;23.710;2022-07-06T11:49:06;153649.50;;;28.58;57.95
21877;BME280;11103;43.788;23.710;2022-07-06T11:51:37;153598.84;;;28.39;59.68
21877;BME280;11103;43.788;23.710;2022-07-06T11:54:13;153637.78;;;28.54;62.08
21877;BME280;11103;43.788;23.710;2022-07-06T11:56:59;153645.56;;;28.57;60.78
21877;BME280;11103;43.788;23.710;2022-07-06T11:59:32;153633.91;;;28.52;60.24
21877;BME280;11103;43.788;23.710;2022-07-06T12:01:59;153617.00;;;28.46;59.13
21877;BME280;11103;43.788;23.710;2022-07-06T12:04:26;153635.22;;;28.53;60.59
21877;BME280;11103;43.788;23.710;2022-07-06T12:06:52;153601.47;;;28.40;58.89
21877;BME280;11103;43.788;23.710;2022-07-06T12:09:17;153572.91;;;28.28;59.02
21877;BME280;11103;43.788;23.710;2022-07-06T12:11:45;153602.78;;;28.40;61.04
21877;BME280;11103;43.788;23.710;2022-07-06T12:14:16;153598.84;;;28.39;60.07
21877;BME280;11103;43.788;23.710;2022-07-06T12:16:43;153592.38;;;28.36;60.46
21877;BME280;11103;43.788;23.710;2022-07-06T12:19:08;153575.47;;;28.29;60.09
21877;BME280;11103;43.788;23.710;2022-07-06T12:21:45;153584.56;;;28.33;62.43
21877;BME280;11103;43.788;23.710;2022-07-06T12:24:18;153627.41;;;28.50;62.95
21877;BME280;11103;43.788;23.710;2022-07-06T12:26:43;153601.47;;;28.40;61.54
21877;BME280;11103;43.788;23.710;2022-07-06T12:29:11;153655.97;;;28.61;60.61
21877;BME280;11103;43.788;23.710;2022-07-06T12:34:19;153610.53;;;28.43;60.35
21877;BME280;11103;43.788;23.710;2022-07-06T12:36:47;153592.38;;;28.36;60.86
21877;BME280;11103;43.788;23.710;2022-07-06T12:39:15;153609.25;;;28.43;61.71
21877;BME280;11103;43.788;23.710;2022-07-06T12:41:52;153622.25;;;28.48;61.41
21877;BME280;11103;43.788;23.710;2022-07-06T12:44:20;153609.25;;;28.43;61.30
21877;BME280;11103;43.788;23.710;2022-07-06T12:46:47;153652.06;;;28.59;63.01
21877;BME280;11103;43.788;23.710;2022-07-06T12:49:23;153704.06;;;28.79;62.51
21877;BME280;11103;43.788;23.710;2022-07-06T12:54:16;153792.34;;;29.14;61.45